CheckWX is a tool to help pilots better visualize weather data.  It is not intended as a substitute for an official pre-flight weather briefing.

00:35:01 UTC

UIII TAF
Irkutsk Airport
Irkutsk, Russian Federation
TAF UIII 222300Z 2300/2324 16005MPS CAVOK

Oct-23@
00:00 UTC

Oct-23 @ 00:00 UTC

Oct-24@
00:00 UTC

Oct-24 @ 00:00 UTC

TAF UIII 222300Z 2300/2324 16005MPS CAVOK
Wind
  • 160° at 10 KTS
Conditions
No significant weather
Cloud Levels
  • No significant clouds